Time;durP1;ratioP1;P1;durP2;ratioP2;P2;SDS_P1;SDS_P2;PMS_P1;PMS_P2;Temp;Humidity;BMP_temperature;BMP_pressure;BME280_temperature;BME280_humidity;BME280_pressure;Samples;Min_cycle;Max_cycle;Signal;HPM_P1;HPM_P2
2022/12/23 00:00:10;;;;;;;;;1.00;0.00;;;;;14.70;76.58;100551.59;4998683;28;45537;-80
2022/12/23 00:02:35;;;;;;;;;0.00;0.00;;;;;14.71;77.00;100542.72;5006552;28;47577;-81
2022/12/23 00:05:02;;;;;;;;;5.00;3.50;;;;;14.71;76.95;100540.06;5003097;28;45657;-78
2022/12/23 00:07:27;;;;;;;;;1.00;1.00;;;;;14.77;76.85;100553.16;4999305;28;45523;-79
2022/12/23 00:09:53;;;;;;;;;3.67;2.33;;;;;14.75;76.86;100552.38;4995069;28;45469;-79
2022/12/23 00:15:05;;;;;;;;;2.00;2.00;;;;;14.71;77.04;100547.16;4999360;28;45437;-78
2022/12/23 00:17:32;;;;;;;;;2.67;1.67;;;;;14.73;77.09;100551.53;5014643;28;45887;-79
2022/12/23 00:19:58;;;;;;;;;0.00;0.00;;;;;14.74;77.08;100552.38;4999648;28;45338;-78
2022/12/23 00:23:03;;;;;;;;;2.67;2.67;;;;;14.71;77.42;100550.69;4998692;28;48123;-77
2022/12/23 00:25:11;;;;;;;;;2.33;1.00;;;;;14.67;77.50;100559.59;4999621;28;45505;-80
2022/12/23 00:27:37;;;;;;;;;2.00;1.33;;;;;14.70;77.72;100563.94;4999591;28;45299;-80
2022/12/23 00:30:04;;;;;;;;;0.00;0.00;;;;;14.69;77.77;100568.38;4998180;28;45764;-80
2022/12/23 00:32:29;;;;;;;;;2.00;2.00;;;;;14.66;77.70;100568.47;4999718;28;47029;-80
2022/12/23 00:34:55;;;;;;;;;0.00;0.00;;;;;14.64;77.92;100557.03;5002442;28;45522;-79
2022/12/23 00:37:20;;;;;;;;;0.00;0.00;;;;;14.61;78.20;100556.22;5001114;28;45411;-78
2022/12/23 00:45:16;;;;;;;;;1.00;1.00;;;;;14.48;79.00;100553.81;4992059;28;45299;-80
2022/12/23 00:50:28;;;;;;;;;0.00;0.00;;;;;14.40;79.50;100553.13;4993681;28;45415;-78
2022/12/23 00:52:54;;;;;;;;;1.00;1.00;;;;;14.44;79.17;100567.19;4997642;28;46313;-80
2022/12/23 00:55:19;;;;;;;;;2.33;1.00;;;;;14.46;79.60;100575.94;5002623;28;45348;-80
2022/12/23 00:57:44;;;;;;;;;0.00;0.00;;;;;14.43;79.61;100576.03;4999374;28;45532;-80
2022/12/23 01:00:11;;;;;;;;;0.00;0.00;;;;;14.48;79.91;100590.03;5002914;28;45442;-80
2022/12/23 01:05:36;;;;;;;;;2.00;2.00;;;;;14.42;79.66;100595.47;4984826;28;45362;-80
2022/12/23 01:08:10;;;;;;;;;0.00;0.00;;;;;14.43;79.53;100599.84;4985919;28;45278;-80
2022/12/23 01:10:39;;;;;;;;;1.33;1.33;;;;;14.36;79.87;100591.19;4999657;28;45303;-80
2022/12/23 01:13:05;;;;;;;;;2.00;1.00;;;;;14.37;79.80;100600.00;5000058;28;45591;-80
2022/12/23 01:15:31;;;;;;;;;1.00;1.00;;;;;14.28;80.32;100585.19;4999279;28;45520;-80
2022/12/23 01:17:57;;;;;;;;;1.00;0.00;;;;;14.33;80.22;100588.63;4998964;28;45362;-80
2022/12/23 01:20:23;;;;;;;;;0.00;0.00;;;;;14.32;80.47;100587.72;4999993;28;45432;-80
2022/12/23 01:22:48;;;;;;;;;0.67;0.00;;;;;14.31;80.67;100590.41;5015349;28;47158;-80
2022/12/23 01:25:14;;;;;;;;;3.00;1.67;;;;;14.27;80.86;100588.72;4999861;28;45338;-80
2022/12/23 01:27:39;;;;;;;;;2.00;1.00;;;;;14.29;80.53;100589.56;5000604;28;45209;-80
2022/12/23 01:30:05;;;;;;;;;1.00;1.00;;;;;14.28;81.08;100596.66;4998698;28;45660;-80
2022/12/23 01:32:31;;;;;;;;;0.00;0.00;;;;;14.31;80.79;100599.22;5000181;28;46720;-80
2022/12/23 01:34:56;;;;;;;;;1.67;1.67;;;;;14.28;80.72;100601.94;4998650;28;45244;-80
2022/12/23 01:37:22;;;;;;;;;0.33;0.00;;;;;14.30;81.15;100597.50;5000376;28;45750;-80
2022/12/23 01:39:47;;;;;;;;;0.00;0.00;;;;;14.34;81.18;100598.28;4999574;28;45235;-80
2022/12/23 01:45:04;;;;;;;;;0.00;0.00;;;;;14.36;81.14;100600.91;4999866;28;45438;-80
2022/12/23 01:47:40;;;;;;;;;1.67;1.67;;;;;14.38;81.38;100612.31;4999823;28;45280;-80
2022/12/23 01:50:35;;;;;;;;;0.00;0.00;;;;;14.35;81.43;100600.03;4999899;28;45196;-80
2022/12/23 01:53:12;;;;;;;;;0.00;0.00;;;;;14.34;81.09;100607.09;5004236;28;46964;-80
2022/12/23 01:55:46;;;;;;;;;1.00;1.00;;;;;14.32;81.86;100606.25;5015111;28;45245;-80
2022/12/23 01:58:19;;;;;;;;;2.00;2.00;;;;;14.33;81.55;100610.66;4987885;28;45272;-80
2022/12/23 02:03:42;;;;;;;;;2.00;2.00;;;;;14.27;81.46;100596.66;4999303;28;45280;-80
2022/12/23 02:11:54;;;;;;;;;1.00;1.00;;;;;14.31;81.74;100601.88;4999430;28;45225;-81
2022/12/23 02:17:53;;;;;;;;;2.00;1.00;;;;;14.36;81.85;100600.91;5001633;28;45248;-80
2022/12/23 02:20:30;;;;;;;;;3.33;2.00;;;;;14.35;81.80;100594.72;5017925;28;45229;-80
2022/12/23 02:23:34;;;;;;;;;1.00;1.00;;;;;14.36;81.74;100593.84;4992576;28;45550;-80
2022/12/23 02:25:59;;;;;;;;;0.33;0.33;;;;;14.36;82.05;100590.31;5002564;28;45430;-80
2022/12/23 02:28:24;;;;;;;;;2.00;2.00;;;;;14.37;81.61;100592.06;5002632;28;45226;-81
2022/12/23 02:31:08;;;;;;;;;1.33;0.67;;;;;14.35;81.86;100584.13;4998393;28;45490;-81
2022/12/23 02:33:39;;;;;;;;;0.00;0.00;;;;;14.36;81.60;100590.31;5000736;28;45272;-81
2022/12/23 02:36:04;;;;;;;;;0.00;0.00;;;;;14.41;81.62;100594.63;5000818;28;48257;-81
2022/12/23 02:38:55;;;;;;;;;2.00;2.00;;;;;14.39;81.43;100577.88;4989115;28;45418;-81
2022/12/23 02:41:33;;;;;;;;;1.67;1.67;;;;;14.45;81.22;100587.47;5017986;28;45492;-81
2022/12/23 02:44:10;;;;;;;;;0.00;0.00;;;;;14.41;81.09;100570.78;5002615;28;45235;-81
2022/12/23 02:46:51;;;;;;;;;2.00;2.00;;;;;14.41;81.04;100569.91;5002143;28;45610;-81
2022/12/23 02:49:22;;;;;;;;;1.67;1.67;;;;;14.48;80.80;100595.34;5001058;28;45396;-81
2022/12/23 02:51:53;;;;;;;;;1.00;0.67;;;;;14.49;80.85;100583.84;5002439;28;45268;-81
2022/12/23 02:54:27;;;;;;;;;4.00;2.67;;;;;14.48;80.65;100587.38;5001994;28;45231;-81
2022/12/23 02:56:54;;;;;;;;;1.33;1.33;;;;;14.48;80.31;100585.59;5002423;28;46552;-81
2022/12/23 02:59:26;;;;;;;;;2.67;2.67;;;;;14.47;80.28;100590.97;5002237;28;45513;-81
2022/12/23 03:01:53;;;;;;;;;2.00;0.00;;;;;14.45;79.94;100585.69;5001016;28;45311;-81
2022/12/23 03:04:19;;;;;;;;;2.67;1.00;;;;;14.44;80.14;100581.31;5014115;28;45457;-81
2022/12/23 03:06:49;;;;;;;;;2.00;2.00;;;;;14.49;79.87;100594.44;4992079;28;46168;-81
2022/12/23 03:09:30;;;;;;;;;2.33;1.00;;;;;14.49;79.69;100595.31;5001599;28;45233;-81
2022/12/23 03:12:19;;;;;;;;;1.00;1.00;;;;;14.49;79.78;100591.81;5002129;28;45267;-81
2022/12/23 03:14:49;;;;;;;;;2.33;2.00;;;;;14.50;79.86;100588.22;5002279;28;45230;-81
2022/12/23 03:17:46;;;;;;;;;3.67;2.67;;;;;14.51;79.61;100574.97;5000249;28;46238;-82
2022/12/23 03:20:30;;;;;;;;;2.00;2.00;;;;;14.53;79.27;100559.91;5001755;28;45261;-80
2022/12/23 03:23:16;;;;;;;;;3.00;3.00;;;;;14.46;79.30;100558.31;5000871;28;45458;-81
2022/12/23 03:25:52;;;;;;;;;1.67;0.00;;;;;14.47;79.15;100562.69;5001650;28;45303;-81
2022/12/23 03:28:39;;;;;;;;;1.00;1.00;;;;;14.48;78.96;100576.78;5000591;28;47135;-80
2022/12/23 03:31:09;;;;;;;;;0.33;0.33;;;;;14.47;79.18;100572.41;5000697;28;45245;-81
2022/12/23 03:33:38;;;;;;;;;1.00;0.33;;;;;14.42;78.71;100572.50;5001821;28;45449;-82
2022/12/23 03:36:11;;;;;;;;;2.00;2.00;;;;;14.42;79.06;100569.00;4994146;28;45299;-81
2022/12/23 03:38:40;;;;;;;;;0.00;0.00;;;;;14.41;79.09;100575.22;4988061;28;45478;-81
2022/12/23 03:41:12;;;;;;;;;4.00;3.00;;;;;14.39;79.05;100574.38;5000259;28;46010;-81
2022/12/23 03:43:53;;;;;;;;;1.00;1.00;;;;;14.41;79.00;100580.50;5001947;28;45327;-81
2022/12/23 03:46:33;;;;;;;;;3.67;3.67;;;;;14.42;78.85;100577.81;5001461;28;45419;-81
2022/12/23 03:49:14;;;;;;;;;4.67;1.00;;;;;14.33;78.84;100563.00;5000193;28;46323;-81
2022/12/23 03:52:03;;;;;;;;;4.00;2.67;;;;;14.40;78.61;100573.44;4989561;28;45490;-81
2022/12/23 03:54:53;;;;;;;;;1.00;1.00;;;;;14.36;78.77;100567.34;4999954;28;45295;-81
2022/12/23 03:57:21;;;;;;;;;2.67;1.00;;;;;14.37;78.60;100571.75;5000126;28;45529;-81
2022/12/23 03:59:52;;;;;;;;;4.33;2.67;;;;;14.38;78.68;100573.50;5001539;28;45580;-81
2022/12/23 04:02:37;;;;;;;;;4.67;3.00;;;;;14.39;78.68;100579.66;5001368;28;45288;-81
2022/12/23 04:05:21;;;;;;;;;3.33;3.00;;;;;14.38;78.76;100578.78;5007381;28;45321;-81
2022/12/23 04:08:05;;;;;;;;;2.67;2.33;;;;;14.37;78.65;100558.50;4999498;28;45302;-81
2022/12/23 04:10:30;;;;;;;;;0.33;0.00;;;;;14.28;78.83;100543.69;4999367;28;47976;-80
2022/12/23 04:12:56;;;;;;;;;1.33;1.00;;;;;14.25;78.68;100532.31;4993370;28;45233;-81
2022/12/23 04:15:24;;;;;;;;;1.00;1.00;;;;;14.32;78.91;100555.94;4994396;28;45316;-81
2022/12/23 04:17:52;;;;;;;;;1.00;1.00;;;;;14.24;78.72;100528.75;4998665;28;45574;-81
2022/12/23 04:20:17;;;;;;;;;0.33;0.33;;;;;14.28;79.00;100535.75;5002781;28;47186;-81
2022/12/23 04:22:43;;;;;;;;;0.67;0.33;;;;;14.26;78.81;100541.97;5016054;28;45416;-81
2022/12/23 04:25:12;;;;;;;;;2.00;1.00;;;;;14.26;78.64;100557.88;5000629;28;45288;-80
2022/12/23 04:27:38;;;;;;;;;1.33;0.00;;;;;14.28;78.89;100567.53;4999754;28;45861;-81
2022/12/23 04:30:05;;;;;;;;;5.00;4.33;;;;;14.21;78.84;100565.03;5000493;28;46069;-80
2022/12/23 04:32:31;;;;;;;;;2.00;2.00;;;;;14.22;79.02;100561.47;4999442;28;45564;-81
2022/12/23 04:34:56;;;;;;;;;1.33;1.00;;;;;14.20;79.33;100555.34;4999413;28;45907;-81
2022/12/23 04:37:22;;;;;;;;;1.00;1.00;;;;;14.17;79.35;100553.66;4999171;28;45429;-81
2022/12/23 04:39:47;;;;;;;;;2.67;1.00;;;;;14.23;79.43;100555.28;4999951;28;45409;-81
2022/12/23 04:42:13;;;;;;;;;2.00;0.00;;;;;14.21;79.12;100560.59;4999307;28;45418;-81
2022/12/23 04:44:38;;;;;;;;;1.67;1.67;;;;;14.23;79.56;100553.50;5000599;28;45268;-81
2022/12/23 04:47:03;;;;;;;;;3.00;1.33;;;;;14.21;79.51;100542.06;5015979;28;45327;-81
2022/12/23 04:49:30;;;;;;;;;1.33;0.33;;;;;14.26;79.71;100541.97;5000273;28;45712;-81
2022/12/23 04:51:55;;;;;;;;;2.00;2.00;;;;;14.28;79.48;100542.81;4999277;28;45238;-81
2022/12/23 04:54:21;;;;;;;;;2.67;2.33;;;;;14.23;79.63;100527.03;4998457;28;45437;-81
2022/12/23 04:56:46;;;;;;;;;2.00;2.00;;;;;14.27;79.54;100528.72;4995856;28;45242;-81
2022/12/23 04:59:12;;;;;;;;;4.00;1.67;;;;;14.32;79.77;100529.47;4995413;28;47267;-81
2022/12/23 05:01:37;;;;;;;;;3.00;1.00;;;;;14.29;79.75;100521.59;5000534;28;45271;-81
2022/12/23 05:04:03;;;;;;;;;4.00;3.00;;;;;14.34;79.74;100519.72;4999355;28;45384;-81
2022/12/23 05:06:28;;;;;;;;;4.33;2.67;;;;;14.39;79.83;100522.25;4999090;28;45509;-81
2022/12/23 05:08:53;;;;;;;;;1.00;1.00;;;;;14.38;79.76;100536.41;5014958;28;48165;-81
2022/12/23 05:11:19;;;;;;;;;3.00;3.00;;;;;14.39;79.50;100524.03;4998923;28;45461;-80
2022/12/23 05:13:44;;;;;;;;;2.00;2.00;;;;;14.42;79.91;100527.47;5000000;28;45388;-81
2022/12/23 05:16:10;;;;;;;;;1.67;1.33;;;;;14.41;79.71;100525.75;5000315;28;45769;-81
2022/12/23 05:18:35;;;;;;;;;3.00;3.00;;;;;14.42;79.64;100526.63;5009955;28;46013;-81
2022/12/23 05:21:00;;;;;;;;;2.33;1.33;;;;;14.48;79.43;100518.50;4999041;28;45292;-81
2022/12/23 05:23:26;;;;;;;;;1.67;1.67;;;;;14.47;79.66;100511.50;4998713;28;45361;-81
2022/12/23 05:25:53;;;;;;;;;3.67;2.00;;;;;14.46;79.66;100510.63;4998689;28;45353;-81
2022/12/23 05:28:19;;;;;;;;;1.33;0.00;;;;;14.52;79.78;100514.91;5000073;28;45508;-81
2022/12/23 05:30:45;;;;;;;;;0.33;0.33;;;;;14.50;79.51;100509.63;5000080;28;45299;-81
2022/12/23 05:33:10;;;;;;;;;4.33;3.33;;;;;14.49;79.73;100507.03;4999867;28;45318;-81
2022/12/23 05:35:35;;;;;;;;;6.33;5.33;;;;;14.55;79.69;100523.66;5015167;28;45912;-81
2022/12/23 05:38:02;;;;;;;;;2.00;2.00;;;;;14.53;80.06;100519.31;4999539;28;46348;-81
2022/12/23 05:40:28;;;;;;;;;0.00;0.00;;;;;14.53;79.96;100514.88;5014966;28;45274;-81
2022/12/23 05:42:53;;;;;;;;;4.00;3.00;;;;;14.50;80.24;100499.03;4999861;28;45240;-81
2022/12/23 05:45:19;;;;;;;;;3.00;1.00;;;;;14.50;79.82;100492.88;4999792;28;45642;-81
2022/12/23 05:47:45;;;;;;;;;2.00;2.00;;;;;14.49;79.93;100485.84;4999906;28;45752;-81
2022/12/23 05:50:11;;;;;;;;;0.67;0.00;;;;;14.52;80.24;100491.97;4999729;28;45426;-81
2022/12/23 05:52:37;;;;;;;;;2.33;1.00;;;;;14.55;80.24;100498.97;5003311;28;45311;-81
2022/12/23 05:55:03;;;;;;;;;3.00;1.00;;;;;14.48;80.36;100486.72;5001429;28;45355;-81
2022/12/23 05:57:29;;;;;;;;;3.00;1.33;;;;;14.47;80.46;100482.34;5003155;28;45251;-81
2022/12/23 05:59:54;;;;;;;;;1.33;0.00;;;;;14.54;80.59;100490.16;5003116;28;45322;-81
2022/12/23 06:02:20;;;;;;;;;2.67;2.67;;;;;14.49;79.93;100491.13;5002955;28;45204;-81
2022/12/23 06:04:46;;;;;;;;;0.00;0.00;;;;;14.49;80.66;100493.78;4996591;28;45193;-81
2022/12/23 06:07:12;;;;;;;;;2.00;2.00;;;;;14.50;80.72;100499.03;4995293;28;46779;-81
2022/12/23 06:09:37;;;;;;;;;0.67;0.67;;;;;14.48;80.73;100495.53;5002693;28;45277;-81
2022/12/23 06:12:03;;;;;;;;;0.00;0.00;;;;;14.50;80.77;100492.88;5002783;28;45286;-81
2022/12/23 06:14:28;;;;;;;;;2.00;2.00;;;;;14.48;80.91;100489.38;5003106;28;45257;-81
2022/12/23 06:16:53;;;;;;;;;4.00;4.00;;;;;14.47;80.63;100480.56;5017321;28;48148;-81
2022/12/23 06:19:19;;;;;;;;;1.67;1.67;;;;;14.48;81.19;100484.94;5003153;28;45472;-81
2022/12/23 06:21:44;;;;;;;;;2.00;2.00;;;;;14.50;80.71;100491.09;5002738;28;45685;-81
2022/12/23 06:24:10;;;;;;;;;3.00;3.00;;;;;14.52;80.75;100497.25;5001027;28;45407;-81
2022/12/23 06:26:35;;;;;;;;;4.00;4.00;;;;;14.50;81.22;100491.09;5001004;28;47570;-81
2022/12/23 06:29:01;;;;;;;;;1.67;1.67;;;;;14.48;81.29;100486.72;5001411;28;45418;-81
2022/12/23 06:31:26;;;;;;;;;0.00;0.00;;;;;14.48;81.34;100492.03;5001249;28;45440;-81
2022/12/23 06:33:52;;;;;;;;;0.67;0.67;;;;;14.50;81.19;100480.50;5002775;28;45334;-81
2022/12/23 06:36:18;;;;;;;;;1.67;1.67;;;;;14.55;81.36;100475.13;5001089;28;47114;-81
2022/12/23 06:38:43;;;;;;;;;0.00;0.00;;;;;14.55;81.18;100473.34;5002482;28;45410;-81
2022/12/23 06:41:09;;;;;;;;;0.00;0.00;;;;;14.56;81.45;100456.53;5001811;28;45315;-81
2022/12/23 06:43:34;;;;;;;;;0.00;0.00;;;;;14.59;81.09;100474.13;4990207;28;45251;-81
2022/12/23 06:46:00;;;;;;;;;0.00;0.00;;;;;14.61;81.28;100477.63;5001542;28;45493;-81
2022/12/23 06:48:26;;;;;;;;;1.00;1.00;;;;;14.58;81.13;100469.75;4990295;28;45355;-81
2022/12/23 06:50:52;;;;;;;;;2.00;2.00;;;;;14.60;81.21;100464.41;5002490;28;45320;-81
2022/12/23 06:53:17;;;;;;;;;1.00;0.00;;;;;14.61;81.43;100464.38;5001979;28;45271;-81
2022/12/23 06:55:43;;;;;;;;;0.00;0.00;;;;;14.61;81.17;100451.13;5001805;28;46530;-81
2022/12/23 06:58:08;;;;;;;;;0.00;0.00;;;;;14.58;81.23;100439.75;5002334;28;45198;-81
2022/12/23 07:00:34;;;;;;;;;0.00;0.00;;;;;14.58;81.32;100434.44;5017111;28;45289;-82
2022/12/23 07:02:59;;;;;;;;;0.00;0.00;;;;;14.63;81.18;100443.16;4994194;28;45485;-81
2022/12/23 07:05:25;;;;;;;;;1.33;1.33;;;;;14.62;81.29;100439.63;4981028;28;46596;-81
2022/12/23 07:07:50;;;;;;;;;1.00;1.00;;;;;14.63;81.22;100433.41;5000778;28;45445;-81
2022/12/23 07:10:15;;;;;;;;;0.00;0.00;;;;;14.64;81.17;100440.44;5001993;28;45380;-81
2022/12/23 07:12:41;;;;;;;;;0.00;0.00;;;;;14.69;81.18;100442.97;5004370;28;45438;-81
2022/12/23 07:15:07;;;;;;;;;2.00;2.00;;;;;14.72;81.17;100432.28;5000751;28;47934;-81
2022/12/23 07:17:32;;;;;;;;;0.00;0.00;;;;;14.70;81.25;100428.81;5000262;28;46390;-81
2022/12/23 07:19:58;;;;;;;;;1.33;1.33;;;;;14.72;80.79;100429.66;5002013;28;45303;-81
2022/12/23 07:22:23;;;;;;;;;0.00;0.00;;;;;14.74;81.13;100430.47;5001753;28;45319;-81
2022/12/23 07:24:49;;;;;;;;;0.00;0.00;;;;;14.72;81.02;100417.25;5000311;28;46009;-81
2022/12/23 07:27:15;;;;;;;;;1.00;1.00;;;;;14.77;80.97;100412.72;5001640;28;45220;-82
2022/12/23 07:29:40;;;;;;;;;1.00;1.00;;;;;14.78;80.70;100421.53;5001952;28;45174;-81
2022/12/23 07:32:06;;;;;;;;;0.00;0.00;;;;;14.81;80.96;100423.22;5001526;28;45700;-81
2022/12/23 07:34:31;;;;;;;;;0.67;0.67;;;;;14.78;80.88;100417.13;5016955;28;47899;-83
2022/12/23 07:36:57;;;;;;;;;2.00;2.00;;;;;14.83;80.66;100419.63;5001618;28;45319;-84
2022/12/23 07:39:22;;;;;;;;;1.00;1.00;;;;;14.90;80.89;100430.97;5016349;28;45246;-83
2022/12/23 07:41:47;;;;;;;;;1.00;1.00;;;;;14.83;80.40;100416.97;5001310;28;45243;-84
2022/12/23 07:44:13;;;;;;;;;0.00;0.00;;;;;14.92;80.58;100431.78;5000033;28;46980;-85
2022/12/23 07:46:39;;;;;;;;;2.00;2.00;;;;;14.91;80.39;100424.72;5000166;28;45276;-86
2022/12/23 07:49:04;;;;;;;;;0.00;0.00;;;;;14.93;80.15;100430.88;5016880;28;45375;-85
2022/12/23 07:51:30;;;;;;;;;2.33;2.33;;;;;14.92;80.11;100427.34;5001172;28;45351;-86
2022/12/23 07:53:56;;;;;;;;;1.00;1.00;;;;;14.95;80.23;100437.00;4999332;28;47485;-84
2022/12/23 07:56:22;;;;;;;;;10.00;10.00;;;;;14.94;80.50;100414.94;4999787;28;46204;-85
2022/12/23 07:58:48;;;;;;;;;1.00;1.00;;;;;14.91;80.23;100412.34;5000068;28;45366;-86
2022/12/23 08:01:14;;;;;;;;;2.00;2.00;;;;;14.99;80.24;100422.75;5016586;28;45350;-85
2022/12/23 08:03:39;;;;;;;;;2.00;0.00;;;;;14.97;80.01;100408.69;5016140;28;47334;-84
2022/12/23 08:06:08;;;;;;;;;2.00;2.00;;;;;15.01;79.89;100412.97;5002537;28;45732;-85
2022/12/23 08:08:33;;;;;;;;;2.00;2.00;;;;;14.98;80.15;100427.19;4999488;28;45442;-85
2022/12/23 08:11:04;;;;;;;;;1.00;1.00;;;;;14.99;80.22;100410.38;5000525;28;45579;-83
2022/12/23 08:13:31;;;;;;;;;1.00;1.00;;;;;15.00;79.86;100428.00;4998269;28;47256;-84
2022/12/23 08:15:58;;;;;;;;;0.00;0.00;;;;;15.01;79.76;100402.38;5016079;28;45236;-86
2022/12/23 08:18:25;;;;;;;;;2.00;0.00;;;;;15.06;79.93;100397.81;4998569;28;45400;-87
2022/12/23 08:21:04;;;;;;;;;1.33;0.33;;;;;15.03;79.73;100384.66;5001476;28;45510;-86
2022/12/23 08:23:31;;;;;;;;;2.33;2.33;;;;;15.03;79.49;100375.84;5001991;28;46938;-86
2022/12/23 08:26:10;;;;;;;;;2.33;2.33;;;;;15.10;79.83;100388.88;5003191;28;45167;-84
2022/12/23 08:28:38;;;;;;;;;1.33;1.33;;;;;15.08;79.68;100379.22;5014936;28;45477;-84
2022/12/23 08:31:11;;;;;;;;;2.00;2.00;;;;;15.14;79.74;100392.31;5000544;28;45426;-86
2022/12/23 08:33:38;;;;;;;;;1.00;1.00;;;;;15.15;79.60;100384.28;5000036;28;45492;-85
2022/12/23 08:36:06;;;;;;;;;1.00;1.00;;;;;15.16;79.50;100372.78;5000376;28;45377;-85
2022/12/23 08:38:31;;;;;;;;;0.00;0.00;;;;;15.17;79.30;100386.91;4999939;28;45391;-84
2022/12/23 08:40:57;;;;;;;;;0.00;0.00;;;;;15.20;79.58;100378.84;5000258;28;45519;-82
2022/12/23 08:43:22;;;;;;;;;1.33;1.33;;;;;15.20;79.21;100378.84;5000191;28;45384;-83
2022/12/23 08:45:48;;;;;;;;;0.00;0.00;;;;;15.21;79.33;100362.91;5003834;28;45308;-83
2022/12/23 08:48:14;;;;;;;;;0.00;0.00;;;;;15.21;79.57;100362.91;4999885;28;45430;-83
2022/12/23 08:50:41;;;;;;;;;2.00;2.00;;;;;15.22;79.30;100354.03;4999995;28;45495;-84
2022/12/23 08:53:07;;;;;;;;;1.00;1.00;;;;;15.26;79.35;100353.94;4999361;28;45550;-83
2022/12/23 08:55:41;;;;;;;;;1.33;0.00;;;;;15.26;79.24;100345.97;4998976;28;45321;-84
2022/12/23 08:58:07;;;;;;;;;2.00;2.00;;;;;15.18;79.64;100331.19;4992239;28;45499;-84
2022/12/23 09:00:33;;;;;;;;;2.00;1.00;;;;;15.27;79.55;100343.31;4992239;28;45973;-85
2022/12/23 09:02:59;;;;;;;;;0.33;0.00;;;;;15.22;79.14;100314.25;4986867;28;45461;-84
2022/12/23 09:05:24;;;;;;;;;0.00;0.00;;;;;15.25;78.93;100289.44;4988109;28;45327;-82
2022/12/23 09:07:50;;;;;;;;;0.00;0.00;;;;;15.24;79.26;100263.84;4998958;28;45429;-84
2022/12/23 09:10:15;;;;;;;;;0.00;0.00;;;;;15.26;79.04;100272.59;4998696;28;45529;-84
2022/12/23 09:12:40;;;;;;;;;0.00;0.00;;;;;15.25;79.08;100270.88;5000265;28;45293;-84
2022/12/23 09:15:06;;;;;;;;;0.33;0.00;;;;;15.28;79.08;100260.16;5000287;28;45286;-84
2022/12/23 09:17:32;;;;;;;;;4.00;3.00;;;;;15.32;79.12;100268.91;4998246;28;45529;-84
2022/12/23 09:19:57;;;;;;;;;0.00;0.00;;;;;15.32;79.03;100291.00;5000058;28;45506;-84
2022/12/23 09:22:23;;;;;;;;;0.00;0.00;;;;;15.38;78.99;100311.16;4999605;28;46577;-85
2022/12/23 09:24:48;;;;;;;;;1.00;0.00;;;;;15.38;78.77;100312.00;4999518;28;45236;-84
2022/12/23 09:27:14;;;;;;;;;0.00;0.00;;;;;15.42;78.83;100316.31;4999930;28;45254;-85
2022/12/23 09:29:39;;;;;;;;;1.00;1.00;;;;;15.47;78.75;100345.34;5015729;28;45233;-85
2022/12/23 09:32:05;;;;;;;;;0.67;0.67;;;;;15.39;78.53;100326.13;5000084;28;45425;-85
2022/12/23 09:34:31;;;;;;;;;0.00;0.00;;;;;15.48;78.42;100335.63;4999838;28;45522;-85
2022/12/23 09:36:56;;;;;;;;;0.33;0.33;;;;;15.43;78.23;100351.66;4998447;28;45505;-83
2022/12/23 09:39:22;;;;;;;;;0.00;0.00;;;;;15.46;78.49;100335.66;4998037;28;45386;-86
2022/12/23 09:41:54;;;;;;;;;2.00;2.00;;;;;15.49;78.32;100338.22;4999019;28;46869;-86
2022/12/23 09:44:34;;;;;;;;;3.67;2.00;;;;;15.54;78.35;100340.72;4998728;28;45488;-85
2022/12/23 09:47:03;;;;;;;;;1.00;1.00;;;;;15.51;78.22;100331.09;4999310;28;45336;-85
2022/12/23 09:49:29;;;;;;;;;0.00;0.00;;;;;15.55;78.24;100345.97;4998303;28;45267;-86
2022/12/23 09:52:01;;;;;;;;;1.00;1.00;;;;;15.49;78.25;100322.28;4997831;28;46979;-84
2022/12/23 09:54:33;;;;;;;;;0.00;0.00;;;;;15.57;78.07;100332.69;4997842;28;45523;-85
2022/12/23 09:57:23;;;;;;;;;1.00;1.00;;;;;15.61;78.46;100336.94;4998247;28;45323;-86
2022/12/23 10:00:13;;;;;;;;;0.00;0.00;;;;;15.63;78.05;100343.09;4998310;28;45371;-86
2022/12/23 10:03:05;;;;;;;;;1.00;0.00;;;;;15.60;77.98;100319.31;5007038;28;47354;-87
2022/12/23 10:05:42;;;;;;;;;2.00;2.00;;;;;15.70;78.08;100341.16;5007739;28;45602;-85
2022/12/23 10:08:14;;;;;;;;;0.00;0.00;;;;;15.71;77.82;100333.13;4987757;28;45572;-81
2022/12/23 10:10:56;;;;;;;;;0.00;0.00;;;;;15.73;77.90;100330.44;5013954;28;45417;-83
2022/12/23 10:13:36;;;;;;;;;0.00;0.00;;;;;15.74;77.65;100319.75;4997657;28;47000;-87
2022/12/23 10:16:34;;;;;;;;;1.00;1.00;;;;;15.74;77.41;100318.91;4985717;28;45271;-87
2022/12/23 10:19:11;;;;;;;;;0.00;0.00;;;;;15.82;77.43;100312.44;4995317;28;45208;-86
2022/12/23 10:21:46;;;;;;;;;0.67;0.00;;;;;15.85;77.18;100325.63;5000372;28;45282;-90
2022/12/23 10:24:19;;;;;;;;;0.00;0.00;;;;;15.84;77.28;100313.25;4999229;28;47365;-87
2022/12/23 10:26:51;;;;;;;;;0.00;0.00;;;;;15.84;77.04;100321.22;4996614;28;46556;-88
2022/12/23 10:29:38;;;;;;;;;0.00;0.00;;;;;15.83;77.34;100322.13;4998884;28;45429;-83
2022/12/23 10:32:15;;;;;;;;;0.00;0.00;;;;;15.83;77.35;100311.53;5012976;28;45438;-82
2022/12/23 10:35:09;;;;;;;;;0.00;0.00;;;;;15.81;77.29;100307.19;4997139;28;48238;-83
2022/12/23 10:37:53;;;;;;;;;0.67;0.67;;;;;15.78;77.30;100305.50;4992643;28;45384;-85
2022/12/23 10:40:34;;;;;;;;;1.00;1.00;;;;;15.80;77.54;100324.91;5006692;28;45346;-80
2022/12/23 10:42:59;;;;;;;;;1.00;1.00;;;;;15.81;77.49;100323.97;5003665;28;45311;-83
2022/12/23 10:45:40;;;;;;;;;0.00;0.00;;;;;15.77;77.54;100309.06;5000264;28;47747;-83
2022/12/23 10:48:35;;;;;;;;;1.00;1.00;;;;;15.86;77.62;100295.50;5000184;28;45462;-81
2022/12/23 10:51:31;;;;;;;;;2.00;1.00;;;;;15.96;77.32;100296.06;4989763;28;45239;-86
2022/12/23 10:54:20;;;;;;;;;1.33;1.33;;;;;15.95;77.52;100277.53;5003638;28;45426;-91
2022/12/23 10:57:24;;;;;;;;;0.00;0.00;;;;;16.09;77.21;100281.47;5001248;28;46956;-89
2022/12/23 11:00:17;;;;;;;;;0.00;0.00;;;;;16.18;76.99;100288.25;4991264;28;45376;-87
2022/12/23 11:03:14;;;;;;;;;0.00;0.00;;;;;16.22;76.67;100294.31;5002563;28;45464;-93
2022/12/23 11:08:38;;;;;;;;;0.00;0.00;;;;;16.20;76.38;100297.03;4992578;28;46648;-86
2022/12/23 11:11:06;;;;;;;;;0.00;0.00;;;;;16.24;76.47;100301.28;5000511;28;45373;-88
2022/12/23 11:13:40;;;;;;;;;0.00;0.00;;;;;16.25;76.00;100303.06;4995865;28;45356;-86
2022/12/23 11:16:27;;;;;;;;;1.00;1.00;;;;;16.31;75.91;100325.88;4990934;28;46388;-84
2022/12/23 11:19:12;;;;;;;;;0.67;0.67;;;;;16.23;75.76;100302.22;5001254;28;45599;-83
2022/12/23 11:21:51;;;;;;;;;0.00;0.00;;;;;16.33;75.86;100334.63;5007104;28;45431;-84
2022/12/23 11:24:44;;;;;;;;;0.00;0.00;;;;;16.38;75.64;100334.50;4988918;28;45351;-89
2022/12/23 11:27:19;;;;;;;;;0.00;0.00;;;;;16.43;75.19;100332.56;4998050;28;45612;-83
2022/12/23 11:29:53;;;;;;;;;2.00;2.00;;;;;16.51;75.07;100322.53;5000259;28;47378;-89
2022/12/23 11:36:14;;;;;;;;;0.00;0.00;;;;;16.69;74.27;100307.72;5004355;28;45287;-93
2022/12/23 11:39:02;;;;;;;;;1.00;1.00;;;;;16.70;74.42;100314.75;5001228;28;46054;-93
2022/12/23 11:50:12;;;;;;;;;;;;;;;;;;;;;
2022/12/23 11:52:53;;;;;;;;;0.00;0.00;;;;;17.12;72.90;100301.72;4860611;29;45518;-91
2022/12/23 12:02:41;;;;;;;;;1.33;1.00;;;;;17.77;70.88;100292.06;4990553;28;45512;-92
2022/12/23 12:05:44;;;;;;;;;1.67;1.67;;;;;17.92;70.46;100284.41;5015431;28;45276;-92
2022/12/23 12:08:35;;;;;;;;;0.00;0.00;;;;;18.09;69.63;100276.56;4995899;28;46766;-92
2022/12/23 12:32:45;;;;;;;;;;;;;;;;;;;;;
2022/12/23 12:35:52;;;;;;;;;;;;;;;;;;;;;
2022/12/23 12:38:41;;;;;;;;;1.00;1.00;;;;;18.13;66.52;100293.31;4871682;29;73373;-90
2022/12/23 12:41:22;;;;;;;;;1.00;1.00;;;;;18.22;66.23;100291.09;4848855;29;45441;-93
2022/12/23 12:43:59;;;;;;;;;1.00;1.00;;;;;18.29;66.22;100311.25;4984063;28;45653;-83
2022/12/23 12:46:40;;;;;;;;;1.00;1.00;;;;;18.32;66.27;100296.91;5020447;28;45689;-90
2022/12/23 12:49:50;;;;;;;;;1.00;1.00;;;;;18.40;65.87;100326.78;5020469;28;45408;-82
2022/12/23 12:52:59;;;;;;;;;0.33;0.33;;;;;18.42;65.78;100308.91;4925224;28;45406;-86
2022/12/23 12:55:44;;;;;;;;;;;;;;;;;;;;;
2022/12/23 12:58:31;;;;;;;;;1.00;0.00;;;;;18.67;66.00;100335.38;4951303;28;73723;-92
2022/12/23 13:04:41;;;;;;;;;1.00;1.00;;;;;19.43;64.29;100300.81;5001789;28;45472;-84